sensor_id;sensor_type;location;lat;lon;timestamp;temperature;humidity
32640;DHT22;19049;52.524;11.468;2024-01-30T00:00:42;2.10;99.90
32640;DHT22;19049;52.524;11.468;2024-01-30T00:03:08;2.10;99.90
32640;DHT22;19049;52.524;11.468;2024-01-30T00:05:33;2.10;99.90
32640;DHT22;19049;52.524;11.468;2024-01-30T00:07:59;2.10;99.90
32640;DHT22;19049;52.524;11.468;2024-01-30T00:10:24;2.10;99.90
32640;DHT22;19049;52.524;11.468;2024-01-30T00:12:50;2.10;99.90
32640;DHT22;19049;52.524;11.468;2024-01-30T00:15:15;2.10;99.90
32640;DHT22;19049;52.524;11.468;2024-01-30T00:17:41;2.00;99.90
32640;DHT22;19049;52.524;11.468;2024-01-30T00:20:07;2.00;99.90
32640;DHT22;19049;52.524;11.468;2024-01-30T00:22:34;2.00;99.90
32640;DHT22;19049;52.524;11.468;2024-01-30T00:25:00;2.00;99.90
32640;DHT22;19049;52.524;11.468;2024-01-30T00:27:26;2.00;99.90
32640;DHT22;19049;52.524;11.468;2024-01-30T00:29:52;2.00;99.90
32640;DHT22;19049;52.524;11.468;2024-01-30T00:32:18;2.00;99.90
32640;DHT22;19049;52.524;11.468;2024-01-30T00:34:44;2.00;99.90
32640;DHT22;19049;52.524;11.468;2024-01-30T00:37:10;2.00;99.90
32640;DHT22;19049;52.524;11.468;2024-01-30T00:39:35;2.00;99.90
32640;DHT22;19049;52.524;11.468;2024-01-30T00:42:01;2.00;99.90
32640;DHT22;19049;52.524;11.468;2024-01-30T00:44:27;1.90;99.90
32640;DHT22;19049;52.524;11.468;2024-01-30T00:46:53;1.90;99.90
32640;DHT22;19049;52.524;11.468;2024-01-30T00:49:18;1.90;99.90
32640;DHT22;19049;52.524;11.468;2024-01-30T00:51:44;1.80;99.90
32640;DHT22;19049;52.524;11.468;2024-01-30T00:54:09;1.80;99.90
32640;DHT22;19049;52.524;11.468;2024-01-30T00:56:35;1.80;99.90
32640;DHT22;19049;52.524;11.468;2024-01-30T00:59:00;1.80;99.90
32640;DHT22;19049;52.524;11.468;2024-01-30T01:01:26;1.80;99.90
32640;DHT22;19049;52.524;11.468;2024-01-30T01:03:52;1.80;99.90
32640;DHT22;19049;52.524;11.468;2024-01-30T01:06:17;1.80;99.90
32640;DHT22;19049;52.524;11.468;2024-01-30T01:08:43;1.80;99.90
32640;DHT22;19049;52.524;11.468;2024-01-30T01:11:08;1.70;99.90
32640;DHT22;19049;52.524;11.468;2024-01-30T01:13:34;1.70;99.90
32640;DHT22;19049;52.524;11.468;2024-01-30T01:16:00;1.70;99.90
32640;DHT22;19049;52.524;11.468;2024-01-30T01:18:25;1.70;99.90
32640;DHT22;19049;52.524;11.468;2024-01-30T01:20:52;1.80;99.90
32640;DHT22;19049;52.524;11.468;2024-01-30T01:23:18;1.70;99.90
32640;DHT22;19049;52.524;11.468;2024-01-30T01:25:44;1.70;99.90
32640;DHT22;19049;52.524;11.468;2024-01-30T01:28:09;1.70;99.90
32640;DHT22;19049;52.524;11.468;2024-01-30T01:30:35;1.70;99.90
32640;DHT22;19049;52.524;11.468;2024-01-30T01:33:00;1.70;99.90
32640;DHT22;19049;52.524;11.468;2024-01-30T01:35:27;1.70;99.90
32640;DHT22;19049;52.524;11.468;2024-01-30T01:37:54;1.70;99.90
32640;DHT22;19049;52.524;11.468;2024-01-30T01:40:25;1.60;99.90
32640;DHT22;19049;52.524;11.468;2024-01-30T01:42:52;1.70;99.90
32640;DHT22;19049;52.524;11.468;2024-01-30T01:45:18;1.70;99.90
32640;DHT22;19049;52.524;11.468;2024-01-30T01:47:47;1.70;99.90
32640;DHT22;19049;52.524;11.468;2024-01-30T01:50:15;1.60;99.90
32640;DHT22;19049;52.524;11.468;2024-01-30T01:52:44;1.60;99.90
32640;DHT22;19049;52.524;11.468;2024-01-30T01:55:10;1.60;99.90
32640;DHT22;19049;52.524;11.468;2024-01-30T01:57:36;1.60;99.90
32640;DHT22;19049;52.524;11.468;2024-01-30T02:00:02;1.60;99.90
32640;DHT22;19049;52.524;11.468;2024-01-30T02:02:30;1.60;99.90
32640;DHT22;19049;52.524;11.468;2024-01-30T02:05:00;1.60;99.90
32640;DHT22;19049;52.524;11.468;2024-01-30T02:07:25;1.60;99.90
32640;DHT22;19049;52.524;11.468;2024-01-30T02:09:52;1.60;99.90
32640;DHT22;19049;52.524;11.468;2024-01-30T02:12:17;1.70;99.90
32640;DHT22;19049;52.524;11.468;2024-01-30T02:14:47;1.70;99.90
32640;DHT22;19049;52.524;11.468;2024-01-30T02:17:13;1.70;99.90
32640;DHT22;19049;52.524;11.468;2024-01-30T02:19:39;1.70;99.90
32640;DHT22;19049;52.524;11.468;2024-01-30T02:22:05;1.70;99.90
32640;DHT22;19049;52.524;11.468;2024-01-30T02:24:31;1.60;99.90
32640;DHT22;19049;52.524;11.468;2024-01-30T02:26:57;1.70;99.90
32640;DHT22;19049;52.524;11.468;2024-01-30T02:29:22;1.60;99.90
32640;DHT22;19049;52.524;11.468;2024-01-30T02:31:48;1.60;99.90
32640;DHT22;19049;52.524;11.468;2024-01-30T02:34:14;1.60;99.90
32640;DHT22;19049;52.524;11.468;2024-01-30T02:36:42;1.60;99.90
32640;DHT22;19049;52.524;11.468;2024-01-30T02:39:08;1.50;99.90
32640;DHT22;19049;52.524;11.468;2024-01-30T02:41:33;1.50;99.90
32640;DHT22;19049;52.524;11.468;2024-01-30T02:43:59;1.50;99.90
32640;DHT22;19049;52.524;11.468;2024-01-30T02:46:25;1.50;99.90
32640;DHT22;19049;52.524;11.468;2024-01-30T02:48:50;1.60;99.90
32640;DHT22;19049;52.524;11.468;2024-01-30T02:51:16;1.60;99.90
32640;DHT22;19049;52.524;11.468;2024-01-30T02:53:42;1.60;99.90
32640;DHT22;19049;52.524;11.468;2024-01-30T02:56:08;1.60;99.90
32640;DHT22;19049;52.524;11.468;2024-01-30T02:58:35;1.60;99.90
32640;DHT22;19049;52.524;11.468;2024-01-30T03:01:02;1.60;99.90
32640;DHT22;19049;52.524;11.468;2024-01-30T03:03:27;1.60;99.90
32640;DHT22;19049;52.524;11.468;2024-01-30T03:05:53;1.60;99.90
32640;DHT22;19049;52.524;11.468;2024-01-30T03:08:18;1.60;99.90
32640;DHT22;19049;52.524;11.468;2024-01-30T03:10:44;1.60;99.90
32640;DHT22;19049;52.524;11.468;2024-01-30T03:13:09;1.60;99.90
32640;DHT22;19049;52.524;11.468;2024-01-30T03:15:35;1.60;99.90
32640;DHT22;19049;52.524;11.468;2024-01-30T03:18:02;1.60;99.90
32640;DHT22;19049;52.524;11.468;2024-01-30T03:20:29;1.60;99.90
32640;DHT22;19049;52.524;11.468;2024-01-30T03:22:55;1.60;99.90
32640;DHT22;19049;52.524;11.468;2024-01-30T03:25:21;1.60;99.90
32640;DHT22;19049;52.524;11.468;2024-01-30T03:27:47;1.60;99.90
32640;DHT22;19049;52.524;11.468;2024-01-30T03:30:12;1.60;99.90
32640;DHT22;19049;52.524;11.468;2024-01-30T03:32:38;1.60;99.90
32640;DHT22;19049;52.524;11.468;2024-01-30T03:35:04;1.60;99.90
32640;DHT22;19049;52.524;11.468;2024-01-30T03:37:29;1.60;99.90
32640;DHT22;19049;52.524;11.468;2024-01-30T03:39:55;1.60;99.90
32640;DHT22;19049;52.524;11.468;2024-01-30T03:42:21;1.60;99.90
32640;DHT22;19049;52.524;11.468;2024-01-30T03:44:47;1.70;99.90
32640;DHT22;19049;52.524;11.468;2024-01-30T03:47:13;1.70;99.90
32640;DHT22;19049;52.524;11.468;2024-01-30T03:49:39;1.80;99.90
32640;DHT22;19049;52.524;11.468;2024-01-30T03:52:05;1.80;99.90
32640;DHT22;19049;52.524;11.468;2024-01-30T03:54:30;1.90;99.90
32640;DHT22;19049;52.524;11.468;2024-01-30T03:56:56;2.00;99.90
32640;DHT22;19049;52.524;11.468;2024-01-30T03:59:22;2.00;99.90
32640;DHT22;19049;52.524;11.468;2024-01-30T04:01:50;2.20;99.90
32640;DHT22;19049;52.524;11.468;2024-01-30T04:04:17;2.20;99.90
32640;DHT22;19049;52.524;11.468;2024-01-30T04:06:43;2.30;99.90
32640;DHT22;19049;52.524;11.468;2024-01-30T04:09:09;2.40;99.90
32640;DHT22;19049;52.524;11.468;2024-01-30T04:11:34;2.50;99.90
32640;DHT22;19049;52.524;11.468;2024-01-30T04:14:00;2.60;99.90
32640;DHT22;19049;52.524;11.468;2024-01-30T04:16:25;2.70;99.90
32640;DHT22;19049;52.524;11.468;2024-01-30T04:18:52;2.80;99.90
32640;DHT22;19049;52.524;11.468;2024-01-30T04:21:17;2.80;99.90
32640;DHT22;19049;52.524;11.468;2024-01-30T04:23:43;2.90;99.90
32640;DHT22;19049;52.524;11.468;2024-01-30T04:26:08;3.00;99.90
32640;DHT22;19049;52.524;11.468;2024-01-30T04:28:34;3.00;99.90
32640;DHT22;19049;52.524;11.468;2024-01-30T04:30:59;3.00;99.90
32640;DHT22;19049;52.524;11.468;2024-01-30T04:33:25;3.00;99.90
32640;DHT22;19049;52.524;11.468;2024-01-30T04:35:51;3.10;99.90
32640;DHT22;19049;52.524;11.468;2024-01-30T04:38:17;3.00;99.90
32640;DHT22;19049;52.524;11.468;2024-01-30T04:40:42;3.00;99.90
32640;DHT22;19049;52.524;11.468;2024-01-30T04:43:08;2.90;99.90
32640;DHT22;19049;52.524;11.468;2024-01-30T04:45:34;2.90;99.90
32640;DHT22;19049;52.524;11.468;2024-01-30T04:47:59;2.80;99.90
32640;DHT22;19049;52.524;11.468;2024-01-30T04:50:25;2.80;99.90
32640;DHT22;19049;52.524;11.468;2024-01-30T04:52:52;2.70;99.90
32640;DHT22;19049;52.524;11.468;2024-01-30T04:55:18;2.70;99.90
32640;DHT22;19049;52.524;11.468;2024-01-30T04:57:43;2.60;99.90
32640;DHT22;19049;52.524;11.468;2024-01-30T05:00:09;2.60;99.90
32640;DHT22;19049;52.524;11.468;2024-01-30T05:02:35;2.50;99.90
32640;DHT22;19049;52.524;11.468;2024-01-30T05:05:00;2.50;99.90
32640;DHT22;19049;52.524;11.468;2024-01-30T05:07:26;2.50;99.90
32640;DHT22;19049;52.524;11.468;2024-01-30T05:09:51;2.40;99.90
32640;DHT22;19049;52.524;11.468;2024-01-30T05:12:17;2.40;99.90
32640;DHT22;19049;52.524;11.468;2024-01-30T05:14:43;2.40;99.90
32640;DHT22;19049;52.524;11.468;2024-01-30T05:17:08;2.40;99.90
32640;DHT22;19049;52.524;11.468;2024-01-30T05:19:35;2.30;99.90
32640;DHT22;19049;52.524;11.468;2024-01-30T05:22:01;2.30;99.90
32640;DHT22;19049;52.524;11.468;2024-01-30T05:24:26;2.30;99.90
32640;DHT22;19049;52.524;11.468;2024-01-30T05:26:52;2.30;99.90
32640;DHT22;19049;52.524;11.468;2024-01-30T05:29:17;2.30;99.90
32640;DHT22;19049;52.524;11.468;2024-01-30T05:31:43;2.40;99.90
32640;DHT22;19049;52.524;11.468;2024-01-30T05:34:08;2.40;99.90
32640;DHT22;19049;52.524;11.468;2024-01-30T05:36:34;2.40;99.90
32640;DHT22;19049;52.524;11.468;2024-01-30T05:39:00;2.50;99.90
32640;DHT22;19049;52.524;11.468;2024-01-30T05:41:26;2.60;99.90
32640;DHT22;19049;52.524;11.468;2024-01-30T05:43:51;2.70;99.90
32640;DHT22;19049;52.524;11.468;2024-01-30T05:46:17;2.70;99.90
32640;DHT22;19049;52.524;11.468;2024-01-30T05:48:42;2.80;99.90
32640;DHT22;19049;52.524;11.468;2024-01-30T05:51:08;2.90;99.90
32640;DHT22;19049;52.524;11.468;2024-01-30T05:53:34;3.00;99.90
32640;DHT22;19049;52.524;11.468;2024-01-30T05:56:03;3.00;99.90
32640;DHT22;19049;52.524;11.468;2024-01-30T05:58:29;3.10;99.90
32640;DHT22;19049;52.524;11.468;2024-01-30T06:00:56;3.10;99.90
32640;DHT22;19049;52.524;11.468;2024-01-30T06:03:22;3.10;99.90
32640;DHT22;19049;52.524;11.468;2024-01-30T06:05:47;3.10;99.90
32640;DHT22;19049;52.524;11.468;2024-01-30T06:08:13;3.10;99.90
32640;DHT22;19049;52.524;11.468;2024-01-30T06:10:38;3.00;99.90
32640;DHT22;19049;52.524;11.468;2024-01-30T06:13:04;3.00;99.90
32640;DHT22;19049;52.524;11.468;2024-01-30T06:15:30;3.00;99.90
32640;DHT22;19049;52.524;11.468;2024-01-30T06:17:55;3.00;99.90
32640;DHT22;19049;52.524;11.468;2024-01-30T06:20:21;2.90;99.90
32640;DHT22;19049;52.524;11.468;2024-01-30T06:22:46;2.80;99.90
32640;DHT22;19049;52.524;11.468;2024-01-30T06:25:12;2.80;99.90
32640;DHT22;19049;52.524;11.468;2024-01-30T06:27:38;2.80;99.90
32640;DHT22;19049;52.524;11.468;2024-01-30T06:30:04;2.80;99.90
32640;DHT22;19049;52.524;11.468;2024-01-30T06:32:30;2.70;99.90
32640;DHT22;19049;52.524;11.468;2024-01-30T06:35:00;2.80;99.90
32640;DHT22;19049;52.524;11.468;2024-01-30T06:37:25;2.80;99.90
32640;DHT22;19049;52.524;11.468;2024-01-30T06:39:51;2.70;99.90
32640;DHT22;19049;52.524;11.468;2024-01-30T06:42:19;2.70;99.90
32640;DHT22;19049;52.524;11.468;2024-01-30T06:44:45;2.70;99.90
32640;DHT22;19049;52.524;11.468;2024-01-30T06:47:10;2.70;99.90
32640;DHT22;19049;52.524;11.468;2024-01-30T06:49:36;2.60;99.90
32640;DHT22;19049;52.524;11.468;2024-01-30T06:52:07;2.60;99.90
32640;DHT22;19049;52.524;11.468;2024-01-30T06:54:33;2.50;99.90
32640;DHT22;19049;52.524;11.468;2024-01-30T06:56:59;2.50;99.90
32640;DHT22;19049;52.524;11.468;2024-01-30T06:59:24;2.40;99.90
32640;DHT22;19049;52.524;11.468;2024-01-30T07:01:50;2.40;99.90
32640;DHT22;19049;52.524;11.468;2024-01-30T07:04:15;2.30;99.90
32640;DHT22;19049;52.524;11.468;2024-01-30T07:06:42;2.30;99.90
32640;DHT22;19049;52.524;11.468;2024-01-30T07:09:08;2.30;99.90
32640;DHT22;19049;52.524;11.468;2024-01-30T07:11:34;2.30;99.90
32640;DHT22;19049;52.524;11.468;2024-01-30T07:13:59;2.20;99.90
32640;DHT22;19049;52.524;11.468;2024-01-30T07:16:25;2.20;99.90
32640;DHT22;19049;52.524;11.468;2024-01-30T07:18:51;2.20;99.90
32640;DHT22;19049;52.524;11.468;2024-01-30T07:21:16;2.20;99.90
32640;DHT22;19049;52.524;11.468;2024-01-30T07:23:42;2.30;99.90
32640;DHT22;19049;52.524;11.468;2024-01-30T07:26:09;2.30;99.90
32640;DHT22;19049;52.524;11.468;2024-01-30T07:28:35;2.30;99.90
32640;DHT22;19049;52.524;11.468;2024-01-30T07:31:01;2.40;99.90
32640;DHT22;19049;52.524;11.468;2024-01-30T07:33:26;2.40;99.90
32640;DHT22;19049;52.524;11.468;2024-01-30T07:35:53;2.40;99.90
32640;DHT22;19049;52.524;11.468;2024-01-30T07:38:19;2.50;99.90
32640;DHT22;19049;52.524;11.468;2024-01-30T07:40:44;2.50;99.90
32640;DHT22;19049;52.524;11.468;2024-01-30T07:43:10;2.60;99.90
32640;DHT22;19049;52.524;11.468;2024-01-30T07:45:35;2.70;99.90
32640;DHT22;19049;52.524;11.468;2024-01-30T07:48:02;2.80;99.90
32640;DHT22;19049;52.524;11.468;2024-01-30T07:50:28;2.80;99.90
32640;DHT22;19049;52.524;11.468;2024-01-30T07:52:56;2.90;99.90
32640;DHT22;19049;52.524;11.468;2024-01-30T07:55:22;3.00;99.90
32640;DHT22;19049;52.524;11.468;2024-01-30T07:57:53;3.10;99.90
32640;DHT22;19049;52.524;11.468;2024-01-30T08:00:19;3.20;99.90
32640;DHT22;19049;52.524;11.468;2024-01-30T08:02:45;3.30;99.90
32640;DHT22;19049;52.524;11.468;2024-01-30T08:05:11;3.50;99.90
32640;DHT22;19049;52.524;11.468;2024-01-30T08:07:37;3.60;99.90
32640;DHT22;19049;52.524;11.468;2024-01-30T08:10:03;3.80;99.90
32640;DHT22;19049;52.524;11.468;2024-01-30T08:12:29;3.90;99.90
32640;DHT22;19049;52.524;11.468;2024-01-30T08:14:54;4.00;99.90
32640;DHT22;19049;52.524;11.468;2024-01-30T08:17:20;4.30;99.90
32640;DHT22;19049;52.524;11.468;2024-01-30T08:19:45;4.40;99.90
32640;DHT22;19049;52.524;11.468;2024-01-30T08:22:12;4.60;99.90
32640;DHT22;19049;52.524;11.468;2024-01-30T08:24:37;4.70;99.90
32640;DHT22;19049;52.524;11.468;2024-01-30T08:27:03;4.90;99.90
32640;DHT22;19049;52.524;11.468;2024-01-30T08:29:30;5.20;99.90
32640;DHT22;19049;52.524;11.468;2024-01-30T08:31:55;5.40;99.90
32640;DHT22;19049;52.524;11.468;2024-01-30T08:34:21;5.70;99.90
32640;DHT22;19049;52.524;11.468;2024-01-30T08:36:47;6.00;99.90
32640;DHT22;19049;52.524;11.468;2024-01-30T08:39:13;6.20;99.90
32640;DHT22;19049;52.524;11.468;2024-01-30T08:41:39;6.50;99.90
32640;DHT22;19049;52.524;11.468;2024-01-30T08:44:05;6.80;99.90
32640;DHT22;19049;52.524;11.468;2024-01-30T08:46:30;7.20;99.90
32640;DHT22;19049;52.524;11.468;2024-01-30T08:48:56;7.40;99.90
32640;DHT22;19049;52.524;11.468;2024-01-30T08:51:22;7.70;99.90
32640;DHT22;19049;52.524;11.468;2024-01-30T08:53:47;8.00;99.90
32640;DHT22;19049;52.524;11.468;2024-01-30T08:56:13;8.20;99.90
32640;DHT22;19049;52.524;11.468;2024-01-30T08:58:39;8.50;99.90
32640;DHT22;19049;52.524;11.468;2024-01-30T09:01:05;8.70;99.90
32640;DHT22;19049;52.524;11.468;2024-01-30T09:03:31;8.90;99.90
32640;DHT22;19049;52.524;11.468;2024-01-30T09:05:57;9.10;99.90
32640;DHT22;19049;52.524;11.468;2024-01-30T09:08:22;9.30;99.90
32640;DHT22;19049;52.524;11.468;2024-01-30T09:10:48;9.50;99.90
32640;DHT22;19049;52.524;11.468;2024-01-30T09:13:15;9.70;99.90
32640;DHT22;19049;52.524;11.468;2024-01-30T09:15:41;9.90;99.90
32640;DHT22;19049;52.524;11.468;2024-01-30T09:18:07;10.00;99.90
32640;DHT22;19049;52.524;11.468;2024-01-30T09:20:32;10.10;99.90
32640;DHT22;19049;52.524;11.468;2024-01-30T09:22:58;10.30;99.90
32640;DHT22;19049;52.524;11.468;2024-01-30T09:25:24;10.30;99.90
32640;DHT22;19049;52.524;11.468;2024-01-30T09:27:49;10.40;99.90
32640;DHT22;19049;52.524;11.468;2024-01-30T09:30:15;10.40;99.90
32640;DHT22;19049;52.524;11.468;2024-01-30T09:32:41;10.40;99.90
32640;DHT22;19049;52.524;11.468;2024-01-30T09:35:07;10.40;99.90
32640;DHT22;19049;52.524;11.468;2024-01-30T09:37:32;10.40;99.90
32640;DHT22;19049;52.524;11.468;2024-01-30T09:39:58;10.40;99.90
32640;DHT22;19049;52.524;11.468;2024-01-30T09:44:53;10.40;99.90
32640;DHT22;19049;52.524;11.468;2024-01-30T09:47:19;10.50;99.90
32640;DHT22;19049;52.524;11.468;2024-01-30T09:49:44;10.50;99.90
32640;DHT22;19049;52.524;11.468;2024-01-30T09:52:11;10.60;99.90
32640;DHT22;19049;52.524;11.468;2024-01-30T09:54:38;10.70;99.90
32640;DHT22;19049;52.524;11.468;2024-01-30T09:57:04;10.70;99.90
32640;DHT22;19049;52.524;11.468;2024-01-30T09:59:30;10.80;99.90
32640;DHT22;19049;52.524;11.468;2024-01-30T10:01:56;10.90;99.90
32640;DHT22;19049;52.524;11.468;2024-01-30T10:04:22;11.00;99.90
32640;DHT22;19049;52.524;11.468;2024-01-30T10:06:48;11.00;99.90
32640;DHT22;19049;52.524;11.468;2024-01-30T10:09:14;11.10;99.90
32640;DHT22;19049;52.524;11.468;2024-01-30T10:11:40;11.20;99.90
32640;DHT22;19049;52.524;11.468;2024-01-30T10:14:05;11.30;99.90
32640;DHT22;19049;52.524;11.468;2024-01-30T10:16:31;11.30;99.90
32640;DHT22;19049;52.524;11.468;2024-01-30T10:18:57;11.40;99.90
32640;DHT22;19049;52.524;11.468;2024-01-30T10:21:23;11.50;99.90
32640;DHT22;19049;52.524;11.468;2024-01-30T10:23:49;11.60;99.90
32640;DHT22;19049;52.524;11.468;2024-01-30T10:26:16;11.80;99.90
32640;DHT22;19049;52.524;11.468;2024-01-30T10:28:42;11.90;99.90
32640;DHT22;19049;52.524;11.468;2024-01-30T10:31:08;12.00;99.90
32640;DHT22;19049;52.524;11.468;2024-01-30T10:33:34;12.20;99.90
32640;DHT22;19049;52.524;11.468;2024-01-30T10:36:04;12.30;99.90
32640;DHT22;19049;52.524;11.468;2024-01-30T10:38:31;12.40;99.90
32640;DHT22;19049;52.524;11.468;2024-01-30T10:40:58;12.50;99.90
32640;DHT22;19049;52.524;11.468;2024-01-30T10:43:31;12.60;99.90
32640;DHT22;19049;52.524;11.468;2024-01-30T10:46:11;12.60;99.90
32640;DHT22;19049;52.524;11.468;2024-01-30T10:48:43;12.70;99.90
32640;DHT22;19049;52.524;11.468;2024-01-30T10:51:13;12.70;99.90
32640;DHT22;19049;52.524;11.468;2024-01-30T10:53:39;12.70;99.90
32640;DHT22;19049;52.524;11.468;2024-01-30T10:56:06;12.80;99.90
32640;DHT22;19049;52.524;11.468;2024-01-30T10:58:31;12.80;99.90
32640;DHT22;19049;52.524;11.468;2024-01-30T11:00:58;12.90;99.90
32640;DHT22;19049;52.524;11.468;2024-01-30T11:03:24;13.00;99.90
32640;DHT22;19049;52.524;11.468;2024-01-30T11:05:50;13.10;99.90
32640;DHT22;19049;52.524;11.468;2024-01-30T11:08:25;13.30;99.90
32640;DHT22;19049;52.524;11.468;2024-01-30T11:10:58;13.40;99.90
32640;DHT22;19049;52.524;11.468;2024-01-30T11:13:30;13.60;99.90
32640;DHT22;19049;52.524;11.468;2024-01-30T11:16:00;13.90;99.90
32640;DHT22;19049;52.524;11.468;2024-01-30T11:18:29;14.10;99.90
32640;DHT22;19049;52.524;11.468;2024-01-30T11:20:59;14.40;99.90
32640;DHT22;19049;52.524;11.468;2024-01-30T11:23:26;14.70;99.90
32640;DHT22;19049;52.524;11.468;2024-01-30T11:25:53;14.90;99.90
32640;DHT22;19049;52.524;11.468;2024-01-30T11:28:18;15.10;99.90
32640;DHT22;19049;52.524;11.468;2024-01-30T11:30:46;15.40;99.90
32640;DHT22;19049;52.524;11.468;2024-01-30T11:33:14;15.50;99.90
32640;DHT22;19049;52.524;11.468;2024-01-30T11:35:43;15.80;99.90
32640;DHT22;19049;52.524;11.468;2024-01-30T11:38:11;16.00;99.90
32640;DHT22;19049;52.524;11.468;2024-01-30T11:40:38;16.10;99.90
32640;DHT22;19049;52.524;11.468;2024-01-30T11:43:05;16.10;99.90
32640;DHT22;19049;52.524;11.468;2024-01-30T11:45:31;16.20;99.90
32640;DHT22;19049;52.524;11.468;2024-01-30T11:47:58;16.20;99.90
32640;DHT22;19049;52.524;11.468;2024-01-30T11:50:25;16.20;99.10
32640;DHT22;19049;52.524;11.468;2024-01-30T11:52:51;16.20;99.90
32640;DHT22;19049;52.524;11.468;2024-01-30T11:55:16;16.20;99.30
32640;DHT22;19049;52.524;11.468;2024-01-30T11:57:43;16.20;99.50
32640;DHT22;19049;52.524;11.468;2024-01-30T12:00:17;16.10;98.10
32640;DHT22;19049;52.524;11.468;2024-01-30T12:02:44;16.00;98.10
32640;DHT22;19049;52.524;11.468;2024-01-30T12:05:09;15.90;98.80
32640;DHT22;19049;52.524;11.468;2024-01-30T12:07:35;15.80;98.80
32640;DHT22;19049;52.524;11.468;2024-01-30T12:10:02;15.70;98.70
32640;DHT22;19049;52.524;11.468;2024-01-30T12:12:28;15.50;98.40
32640;DHT22;19049;52.524;11.468;2024-01-30T12:14:55;15.40;98.30
32640;DHT22;19049;52.524;11.468;2024-01-30T12:17:34;15.30;98.00
32640;DHT22;19049;52.524;11.468;2024-01-30T12:20:08;15.10;98.40
32640;DHT22;19049;52.524;11.468;2024-01-30T12:25:08;14.80;98.70
32640;DHT22;19049;52.524;11.468;2024-01-30T12:27:34;14.70;99.10
32640;DHT22;19049;52.524;11.468;2024-01-30T12:30:00;14.70;99.40
32640;DHT22;19049;52.524;11.468;2024-01-30T12:32:25;14.60;99.60
32640;DHT22;19049;52.524;11.468;2024-01-30T12:34:55;14.50;99.90
32640;DHT22;19049;52.524;11.468;2024-01-30T12:37:21;14.50;99.90
32640;DHT22;19049;52.524;11.468;2024-01-30T12:39:48;14.50;99.90
32640;DHT22;19049;52.524;11.468;2024-01-30T12:42:14;14.50;99.90
32640;DHT22;19049;52.524;11.468;2024-01-30T12:44:40;14.60;99.90
32640;DHT22;19049;52.524;11.468;2024-01-30T12:47:06;14.60;99.60
32640;DHT22;19049;52.524;11.468;2024-01-30T12:49:33;14.60;99.90
32640;DHT22;19049;52.524;11.468;2024-01-30T12:51:59;14.60;99.90
32640;DHT22;19049;52.524;11.468;2024-01-30T12:54:24;14.60;99.90
32640;DHT22;19049;52.524;11.468;2024-01-30T12:56:50;14.70;99.90
32640;DHT22;19049;52.524;11.468;2024-01-30T12:59:16;14.70;99.90
32640;DHT22;19049;52.524;11.468;2024-01-30T13:01:41;14.70;99.90
32640;DHT22;19049;52.524;11.468;2024-01-30T13:04:07;14.80;99.50
32640;DHT22;19049;52.524;11.468;2024-01-30T13:06:32;14.70;99.80
32640;DHT22;19049;52.524;11.468;2024-01-30T13:08:58;14.70;99.90
32640;DHT22;19049;52.524;11.468;2024-01-30T13:11:23;14.70;99.80
32640;DHT22;19049;52.524;11.468;2024-01-30T13:13:51;14.70;99.50
32640;DHT22;19049;52.524;11.468;2024-01-30T13:16:16;14.70;99.90
32640;DHT22;19049;52.524;11.468;2024-01-30T13:18:42;14.70;99.90
32640;DHT22;19049;52.524;11.468;2024-01-30T13:21:08;14.70;99.90
32640;DHT22;19049;52.524;11.468;2024-01-30T13:23:33;14.70;99.90
32640;DHT22;19049;52.524;11.468;2024-01-30T13:25:59;14.80;99.90
32640;DHT22;19049;52.524;11.468;2024-01-30T13:28:24;14.80;99.60
32640;DHT22;19049;52.524;11.468;2024-01-30T13:30:51;14.90;99.90
32640;DHT22;19049;52.524;11.468;2024-01-30T13:33:16;14.90;99.90
32640;DHT22;19049;52.524;11.468;2024-01-30T13:35:42;14.90;99.90
32640;DHT22;19049;52.524;11.468;2024-01-30T13:38:08;14.90;99.90
32640;DHT22;19049;52.524;11.468;2024-01-30T13:40:34;15.00;99.90
32640;DHT22;19049;52.524;11.468;2024-01-30T13:42:59;15.00;99.80
32640;DHT22;19049;52.524;11.468;2024-01-30T13:45:25;15.00;99.90
32640;DHT22;19049;52.524;11.468;2024-01-30T13:47:50;15.10;99.90
32640;DHT22;19049;52.524;11.468;2024-01-30T13:50:16;15.10;99.90
32640;DHT22;19049;52.524;11.468;2024-01-30T13:52:42;15.20;99.90
32640;DHT22;19049;52.524;11.468;2024-01-30T13:55:09;15.20;99.90
32640;DHT22;19049;52.524;11.468;2024-01-30T13:57:35;15.20;99.90
32640;DHT22;19049;52.524;11.468;2024-01-30T14:00:02;15.30;99.90
32640;DHT22;19049;52.524;11.468;2024-01-30T14:02:30;15.30;99.80
32640;DHT22;19049;52.524;11.468;2024-01-30T14:04:56;15.20;99.80
32640;DHT22;19049;52.524;11.468;2024-01-30T14:07:21;15.10;99.30
32640;DHT22;19049;52.524;11.468;2024-01-30T14:09:48;15.00;99.10
32640;DHT22;19049;52.524;11.468;2024-01-30T14:12:13;14.90;99.30
32640;DHT22;19049;52.524;11.468;2024-01-30T14:14:41;14.80;99.30
32640;DHT22;19049;52.524;11.468;2024-01-30T14:17:07;14.70;99.50
32640;DHT22;19049;52.524;11.468;2024-01-30T14:19:36;14.50;99.50
32640;DHT22;19049;52.524;11.468;2024-01-30T14:22:01;14.30;99.60
32640;DHT22;19049;52.524;11.468;2024-01-30T14:24:27;14.20;99.80
32640;DHT22;19049;52.524;11.468;2024-01-30T14:26:52;14.10;99.90
32640;DHT22;19049;52.524;11.468;2024-01-30T14:29:18;13.90;99.90
32640;DHT22;19049;52.524;11.468;2024-01-30T14:31:44;13.80;99.90
32640;DHT22;19049;52.524;11.468;2024-01-30T14:34:09;13.70;99.90
32640;DHT22;19049;52.524;11.468;2024-01-30T14:36:36;13.60;99.90
32640;DHT22;19049;52.524;11.468;2024-01-30T14:39:02;13.50;99.90
32640;DHT22;19049;52.524;11.468;2024-01-30T14:41:29;13.40;99.90
32640;DHT22;19049;52.524;11.468;2024-01-30T14:43:54;13.30;99.90
32640;DHT22;19049;52.524;11.468;2024-01-30T14:46:20;13.30;99.90
32640;DHT22;19049;52.524;11.468;2024-01-30T14:48:46;13.20;99.90
32640;DHT22;19049;52.524;11.468;2024-01-30T14:51:12;13.10;99.90
32640;DHT22;19049;52.524;11.468;2024-01-30T14:53:37;13.00;99.90
32640;DHT22;19049;52.524;11.468;2024-01-30T14:56:03;13.00;99.90
32640;DHT22;19049;52.524;11.468;2024-01-30T14:58:29;12.90;99.90
32640;DHT22;19049;52.524;11.468;2024-01-30T15:00:55;12.90;99.90
32640;DHT22;19049;52.524;11.468;2024-01-30T15:03:21;12.80;99.90
32640;DHT22;19049;52.524;11.468;2024-01-30T15:05:46;12.80;99.90
32640;DHT22;19049;52.524;11.468;2024-01-30T15:08:11;12.80;99.90
32640;DHT22;19049;52.524;11.468;2024-01-30T15:10:37;12.70;99.90
32640;DHT22;19049;52.524;11.468;2024-01-30T15:13:03;12.70;99.90
32640;DHT22;19049;52.524;11.468;2024-01-30T15:15:28;12.60;99.90
32640;DHT22;19049;52.524;11.468;2024-01-30T15:17:56;12.60;99.90
32640;DHT22;19049;52.524;11.468;2024-01-30T15:20:21;12.50;99.90
32640;DHT22;19049;52.524;11.468;2024-01-30T15:22:47;12.50;99.90